Overview Statistics Trail Chart Weather Telemetry Raw packets
 

This is the latest recevied weather packets stored in our database for station/object TA7O-10. If no packets are shown the sender has not sent any weather packets the latest 10 day(s).

<< 11 12 13 14 15 16 17 >>
Time Temp. Humidity Pressure Rain* Wind** Luminosity Snow
1788385932 30° C 46% 1006.1 hPa - - - -
1788385032 30° C 45% 1006 hPa - - - -
1788384132 30° C 46% 1006.2 hPa - - - -
1788383232 30° C 45% 1006.1 hPa - - - -
1788382332 30° C 45% 1006.1 hPa - - - -
1788381432 30° C 45% 1006.2 hPa - - - -
1788380532 30° C 46% 1006.3 hPa - - - -
1788379619 30° C 46% 1006.3 hPa - - - -
1788378718 30° C 45% 1006.3 hPa - - - -
1788377818 30° C 46% 1006.4 hPa - - - -
1788376918 30° C 46% 1006.5 hPa - - - -
1788376018 30° C 46% 1006.6 hPa - - - -
1788375118 30° C 46% 1006.5 hPa - - - -
1788374218 30° C 45% 1008.9 hPa - - - -
1788373318 30° C 45% 1007.6 hPa - - - -
1788372442 30° C 46% 1006.9 hPa - - - -
1788371518 30° C 45% 1006.8 hPa - - - -
1788370618 30.56° C 44% 1006.7 hPa - - - -
1788369718 30° C 45% 1006.8 hPa - - - -
1788368817 28.33° C 45% 1004.4 hPa - - - -
1788367918 30° C 45% 1006.6 hPa - - - -
1788367017 26.11° C 45% 1000.2 hPa - - - -
1788366117 30° C 46% 1006.5 hPa - - - -
1788365217 30° C 45% 1006.5 hPa - - - -
1788364317 30° C 45% 1006.6 hPa - - - -

* Rain since midnight (hover to see other rain measurements)
** Current wind speed in m/s (hover to see current wind gust speed)